| time (UTC) | temp F | wind direction | speed MPH | gust MPH | rain 1hr in | rain 24hr in | rain mn in | humidity % | barometer mb |
| 20260509032336 | 46 | 0 | 0.0 | 3.0 | 0.04 | 0.11 | 0.11 | 95 | 1009.8 |
| 20260509031036 | 46 | 0 | 0.0 | 2.0 | 0.05 | 0.11 | 0.11 | 95 | 1010.1 |
| 20260509025023 | 47 | 0 | 0.0 | 0.0 | 0.02 | 0.10 | 0.08 | 95 | 1010.4 |
| 20260509024239 | 47 | 0 | 0.0 | 1.0 | 0.01 | 0.09 | 0.07 | 94 | 1010.2 |
| 20260509023723 | 47 | 0 | 0.0 | 1.0 | 0.01 | 0.09 | 0.07 | 94 | 1010.2 |
| 20260509020703 | 47 | 0 | 0.0 | 2.0 | 0.02 | 0.09 | 0.06 | 94 | 1010.1 |
| 20260509014222 | 47 | 0 | 0.0 | 1.0 | 0.06 | 0.16 | 0.06 | 93 | 1009.8 |
| 20260509012922 | 47 | 0 | 0.0 | 1.0 | 0.06 | 0.17 | 0.06 | 92 | 1009.7 |
| 20260509011625 | 48 | 0 | 0.0 | 2.0 | 0.05 | 0.16 | 0.05 | 91 | 1009.7 |
| 20260509010323 | 49 | 0 | 0.0 | 4.0 | 0.03 | 0.14 | 0.03 | 88 | 1009.6 |
| 20260509005023 | 49 | 0 | 0.0 | 2.0 | 0.00 | 0.11 | 0.00 | 85 | 1009.3 |
| 20260509003723 | 49 | 0 | 0.0 | 2.0 | 0.00 | 0.11 | 0.00 | 84 | 1009.0 |
| 20260509002422 | 49 | 0 | 0.0 | 0.0 | 0.00 | 0.11 | 0.00 | 84 | 1009.0 |
| 20260509000644 | 50 | 0 | 0.0 | 1.0 | 0.00 | 0.11 | 0.00 | 80 | 1008.8 |
| 20260508235344 | 50 | 0 | 0.0 | 1.0 | 0.00 | 0.11 | 0.00 | 80 | 1008.8 |
| 20260508234044 | 50 | 0 | 0.0 | 3.0 | 0.00 | 0.11 | 0.00 | 80 | 1008.7 |
| 20260508232533 | 51 | 0 | 0.0 | 2.0 | 0.00 | 0.11 | 0.00 | 77 | 1008.3 |
| 20260508231233 | 52 | 0 | 0.0 | 3.0 | 0.00 | 0.11 | 0.00 | 80 | 1008.2 |
| 20260508225932 | 52 | 0 | 0.0 | 4.0 | 0.00 | 0.11 | 0.00 | 75 | 1008.2 |
| 20260508224633 | 54 | 0 | 0.0 | 7.0 | 0.00 | 0.11 | 0.00 | 70 | 1008.2 |
| 20260508223333 | 56 | 167 | 1.0 | 7.0 | 0.00 | 0.11 | 0.00 | 64 | 1008.0 |
| 20260508221454 | 57 | 0 | 0.0 | 2.0 | 0.00 | 0.11 | 0.00 | 58 | 1008.0 |
| 20260508220154 | 59 | 0 | 0.0 | 2.0 | 0.00 | 0.11 | 0.00 | 59 | 1008.0 |
| 20260508214438 | 57 | 0 | 0.0 | 5.0 | 0.00 | 0.11 | 0.00 | 63 | 1008.1 |
| 20260508213138 | 56 | 0 | 0.0 | 2.0 | 0.00 | 0.11 | 0.00 | 63 | 1007.9 |
| 20260508211542 | 57 | 0 | 0.0 | 2.0 | 0.00 | 0.11 | 0.00 | 55 | 1008.0 |
| 20260508210242 | 56 | 202 | 1.0 | 4.0 | 0.00 | 0.11 | 0.00 | 55 | 1008.1 |
| 20260508204648 | 58 | 0 | 0.0 | 9.0 | 0.00 | 0.11 | 0.00 | 55 | 1008.2 |
| 20260508203348 | 59 | 0 | 0.0 | 3.0 | 0.00 | 0.11 | 0.00 | 54 | 1008.3 |
| 20260508201205 | 57 | 0 | 0.0 | 8.0 | 0.00 | 0.11 | 0.00 | 58 | 1008.6 |
| 20260508195905 | 57 | 345 | 1.0 | 6.0 | 0.00 | 0.11 | 0.00 | 58 | 1008.9 |
| 20260508194605 | 55 | 0 | 0.0 | 4.0 | 0.00 | 0.11 | 0.00 | 60 | 1008.8 |
| 20260508193304 | 52 | 331 | 1.0 | 5.0 | 0.00 | 0.11 | 0.00 | 67 | 1009.2 |
| 20260508190705 | 54 | 320 | 2.0 | 6.0 | 0.00 | 0.11 | 0.00 | 61 | 1009.1 |
| 20260508185405 | 54 | 323 | 4.0 | 9.0 | 0.00 | 0.11 | 0.00 | 60 | 1009.0 |
| 20260508184105 | 55 | 314 | 5.0 | 9.0 | 0.00 | 0.11 | 0.00 | 57 | 1009.3 |
| 20260508182809 | 0 | 0 | 0.0 | 8.0 | 0.00 | 0.11 | 0.00 | 64 | 1009.4 |
| 20260508182805 | 54 | 0 | 0.0 | 8.0 | 0.00 | 0.11 | 0.00 | 64 | 1009.4 |
| 20260508181508 | 53 | 323 | 2.0 | 9.0 | 0.00 | 0.11 | 0.00 | 62 | 3009.7 |
| 20260508181504 | 53 | 323 | 2.0 | 9.0 | 0.00 | 0.11 | 0.00 | 62 | 1009.7 |
| 20260508175742 | 53 | 336 | 1.0 | 7.0 | 0.00 | 0.11 | 0.00 | 63 | 1009.9 |
| 20260508174442 | 52 | 330 | 1.0 | 11.0 | 0.00 | 0.11 | 0.00 | 65 | 1010.0 |
| 20260508173142 | 51 | 11 | 2.0 | 9.0 | 0.00 | 0.11 | 0.00 | 66 | 1010.0 |
| 20260508171842 | 51 | 237 | 1.0 | 4.0 | 0.00 | 0.11 | 0.00 | 67 | 1010.2 |
| 20260508170323 | 52 | 331 | 3.0 | 9.0 | 0.00 | 0.11 | 0.00 | 65 | 1010.2 |
| 20260508170321 | 52 | 331 | 3.0 | 9.0 | 0.00 | 0.11 | 0.00 | 65 | 1010.2 |
| 20260508165026 | 49 | 317 | 4.0 | 13.0 | 0.00 | 0.11 | 0.00 | 68 | 1010.5 |
| 20260508165022 | 49 | 317 | 4.0 | 13.0 | 0.00 | 0.11 | 0.00 | 68 | 1010.5 |
| 20260508163721 | 51 | 342 | 2.0 | 8.0 | 0.00 | 0.11 | 0.00 | 69 | 1010.4 |
| 20260508162421 | 49 | 332 | 2.0 | 9.0 | 0.00 | 0.11 | 0.00 | 73 | 1010.6 |
| 20260508161121 | 47 | 341 | 1.0 | 7.0 | 0.00 | 0.11 | 0.00 | 84 | 1010.9 |
| 20260508155821 | 46 | 0 | 0.0 | 5.0 | 0.00 | 0.11 | 0.00 | 81 | 1011.1 |
| 20260508154524 | 47 | 0 | 0.0 | 4.0 | 0.00 | 0.11 | 0.00 | 77 | 1010.9 |
| 20260508154521 | 47 | 0 | 0.0 | 4.0 | 0.00 | 0.11 | 0.00 | 77 | 1010.9 |
| 20260508153221 | 48 | 0 | 0.0 | 6.0 | 0.00 | 0.11 | 0.00 | 78 | 1010.6 |
| 20260508151922 | 46 | 0 | 0.0 | 4.0 | 0.00 | 0.11 | 0.00 | 80 | 1010.5 |
| 20260508150621 | 46 | 0 | 0.0 | 5.0 | 0.00 | 0.11 | 0.00 | 81 | 1010.7 |
| 20260508145321 | 46 | 0 | 0.0 | 2.0 | 0.00 | 0.11 | 0.00 | 81 | 1010.5 |
| 20260508144021 | 47 | 0 | 0.0 | 3.0 | 0.00 | 0.11 | 0.00 | 77 | 1010.3 |
| 20260508142721 | 47 | 0 | 0.0 | 8.0 | 0.00 | 0.11 | 0.00 | 79 | 1010.2 |
| 20260508141421 | 47 | 307 | 2.0 | 5.0 | 0.00 | 0.11 | 0.00 | 79 | 1010.2 |
| 20260508140121 | 47 | 332 | 4.0 | 7.0 | 0.00 | 0.11 | 0.00 | 80 | 1010.2 |
| 20260508134823 | 46 | 0 | 0.0 | 6.0 | 0.00 | 0.11 | 0.00 | 85 | 1010.4 |
| 20260508134821 | 46 | 0 | 0.0 | 6.0 | 0.00 | 0.11 | 0.00 | 85 | 1010.4 |
| 20260508133524 | 0 | 0 | 0.0 | 4.0 | 0.00 | 0.11 | 0.00 | 93 | 1010.3 |
| 20260508133521 | 45 | 0 | 0.0 | 4.0 | 0.00 | 0.11 | 0.00 | 93 | 1010.3 |
| 20260508132221 | 43 | 0 | 0.0 | 4.0 | 0.00 | 0.11 | 0.00 | 98 | 1010.5 |
| 20260508130921 | 40 | 0 | 0.0 | 1.0 | 0.00 | 0.11 | 0.00 | 98 | 1010.6 |
| 20260508121941 | 36 | 0 | 0.0 | 0.0 | 0.00 | 0.11 | 0.00 | 97 | 1010.6 |
| 20260508120646 | 35 | 0 | 0.0 | 0.0 | 0.00 | 0.11 | 0.00 | 97 | |
| 20260508120642 | 35 | 0 | 0.0 | 0.0 | 0.00 | 0.11 | 0.00 | 97 | 1010.5 |
| 20260508115342 | 35 | 0 | 0.0 | 0.0 | 0.00 | 0.11 | 0.00 | 97 | 1010.4 |
| 20260508114041 | 35 | 0 | 0.0 | 0.0 | 0.00 | 0.11 | 0.00 | 97 | 1010.8 |
| 20260508112010 | 34 | 0 | 0.0 | 0.0 | 0.00 | 0.11 | 0.00 | 97 | 1010.6 |
| 20260508110710 | 33 | 0 | 0.0 | 0.0 | 0.00 | 0.11 | 0.00 | 97 | 1010.6 |
| 20260508105410 | 32 | 0 | 0.0 | 0.0 | 0.00 | 0.11 | 0.00 | 97 | 1010.4 |
| 20260508104111 | 32 | 0 | 0.0 | 0.0 | 0.00 | 0.11 | 0.00 | 97 | 1010.2 |
| 20260508102811 | 31 | 0 | 0.0 | 0.0 | 0.00 | 0.11 | 0.00 | 97 | 1010.2 |
| 20260508101516 | 31 | 0 | 0.0 | 0.0 | 0.00 | 0.11 | 0.00 | 97 | 3010.4 |
| 20260508101511 | 31 | 0 | 0.0 | 0.0 | 0.00 | 0.11 | 0.00 | 97 | 1010.4 |
| 20260508100210 | 31 | 0 | 0.0 | 0.0 | 0.00 | 0.11 | 0.00 | 97 | 1010.2 |
| 20260508094910 | 30 | 0 | 0.0 | 0.0 | 0.00 | 0.11 | 0.00 | 96 | 1010.3 |
| 20260508092024 | 31 | 0 | 0.0 | 0.0 | 0.00 | 0.11 | 0.00 | 96 | 1010.2 |
| 20260508090724 | 31 | 0 | 0.0 | 0.0 | 0.00 | 0.11 | 0.00 | 96 | 1010.2 |
| 20260508085423 | 32 | 0 | 0.0 | 0.0 | 0.00 | 0.11 | 0.00 | 96 | 1010.1 |
| 20260508084123 | 32 | 0 | 0.0 | 0.0 | 0.00 | 0.11 | 0.00 | 97 | 1010.1 |
| 20260508082823 | 32 | 0 | 0.0 | 0.0 | 0.00 | 0.11 | 0.00 | 97 | 1010.1 |
| 20260508081523 | 32 | 0 | 0.0 | 0.0 | 0.00 | 0.11 | 0.00 | 97 | 1010.1 |
| 20260508080224 | 32 | 0 | 0.0 | 0.0 | 0.00 | 0.11 | 0.00 | 96 | 1010.0 |
| 20260508074924 | 33 | 0 | 0.0 | 0.0 | 0.00 | 0.11 | 0.00 | 96 | 1010.0 |
| 20260508073624 | 34 | 0 | 0.0 | 0.0 | 0.00 | 0.11 | 0.00 | 97 | 1009.9 |
| 20260508072326 | 34 | 0 | 0.0 | 0.0 | 0.00 | 0.11 | 0.00 | 97 | 1010.0 |
| 20260508072323 | 34 | 0 | 0.0 | 0.0 | 0.00 | 0.11 | 0.00 | 97 | 1010.0 |
| 20260508070140 | 34 | 0 | 0.0 | 0.0 | 0.00 | 0.11 | 0.00 | 97 | 1009.9 |
| 20260508064840 | 34 | 0 | 0.0 | 0.0 | 0.00 | 0.11 | 0.00 | 96 | 1009.9 |
| 20260508063544 | 34 | 0 | 0.0 | 0.0 | 0.00 | 0.11 | 0.00 | 96 | 1010.1 |
| 20260508063541 | 34 | 0 | 0.0 | 0.0 | 0.00 | 0.11 | 0.00 | 96 | 1010.1 |
| 20260508061050 | 35 | 0 | 0.0 | 0.0 | 0.00 | 0.11 | 0.00 | 96 | 1010.1 |
| 20260508055343 | 35 | 0 | 0.0 | 0.0 | 0.00 | 0.11 | 0.00 | 96 | 1010.1 |
| 20260508054043 | 35 | 0 | 0.0 | 0.0 | 0.00 | 0.11 | 0.00 | 96 | 1010.0 |
| 20260508052745 | 35 | 0 | 0.0 | 0.0 | 0.00 | 0.11 | 0.00 | 1010.0 | |
| 20260508052742 | 35 | 0 | 0.0 | 0.0 | 0.00 | 0.11 | 0.00 | 96 | 1010.0 |
| 20260508051443 | 36 | 0 | 0.0 | 0.0 | 0.00 | 0.11 | 0.00 | 96 | 1010.0 |
| 20260508050146 | 36 | 0 | 0.0 | 0.0 | 0.00 | 0.11 | 0.00 | 1010.0 | |
| 20260508050143 | 36 | 0 | 0.0 | 0.0 | 0.00 | 0.11 | 0.00 | 96 | 1010.0 |
| 20260508044843 | 36 | 0 | 0.0 | 0.0 | 0.00 | 0.11 | 0.00 | 96 | 1009.8 |
| 20260508043545 | 37 | 0 | 0.0 | 0.0 | 0.00 | 0.11 | 0.00 | 95 | 1009.8 |
| 20260508043543 | 37 | 0 | 0.0 | 0.0 | 0.00 | 0.11 | 0.00 | 95 | 1009.8 |
| 20260508041922 | 37 | 0 | 0.0 | 0.0 | 0.00 | 0.11 | 0.00 | 95 | 1009.7 |
| 20260508040622 | 38 | 0 | 0.0 | 0.0 | 0.00 | 0.11 | 0.11 | 95 | 1009.6 |
| 20260508035322 | 38 | 0 | 0.0 | 0.0 | 0.00 | 0.11 | 0.11 | 95 | 1009.6 |
| 20260508034025 | 39 | 0 | 0.0 | 0.0 | 0.02 | 0.11 | 0.11 | 1009.6 | |
| 20260508034022 | 39 | 0 | 0.0 | 0.0 | 0.02 | 0.11 | 0.11 | 94 | 1009.6 |
| 20260508032722 | 40 | 0 | 0.0 | 0.0 | 0.02 | 0.11 | 0.11 | 94 | 1009.6 |